Time;durP1;ratioP1;P1;durP2;ratioP2;P2;SDS_P1;SDS_P2;PMS_P1;PMS_P2;Temp;Humidity;BMP_temperature;BMP_pressure;BME280_temperature;BME280_humidity;BME280_pressure;Samples;Min_cycle;Max_cycle;Signal;HPM_P1;HPM_P2
2022/09/06 00:01:53;;;;;;;12.02;3.10;;;19.80;1.00;;;;;;5035369;28;20085;-27
2022/09/06 00:04:19;;;;;;;8.85;3.13;;;19.70;1.00;;;;;;5035305;28;20120;-26
2022/09/06 00:06:45;;;;;;;4.63;3.03;;;19.70;1.00;;;;;;5034105;28;20115;-27
2022/09/06 00:09:10;;;;;;;6.35;3.15;;;19.60;1.00;;;;;;5035202;28;20107;-26
2022/09/06 00:11:37;;;;;;;5.13;3.33;;;19.60;1.00;;;;;;5035185;28;20045;-27
2022/09/06 00:14:02;;;;;;;5.50;3.13;;;19.60;1.00;;;;;;5035154;28;20095;-26
2022/09/06 00:16:28;;;;;;;5.85;2.60;;;19.50;1.00;;;;;;5034463;28;20085;-26
2022/09/06 00:18:54;;;;;;;9.27;3.47;;;19.50;1.00;;;;;;5033892;28;20192;-27
2022/09/06 00:21:26;;;;;;;6.22;2.97;;;19.50;1.00;;;;;;5034697;28;20487;-28
2022/09/06 00:23:53;;;;;;;4.47;3.03;;;19.50;1.00;;;;;;5034871;28;20037;-26
2022/09/06 00:26:19;;;;;;;6.00;2.80;;;19.40;1.00;;;;;;5034932;28;20080;-27
2022/09/06 00:28:46;;;;;;;6.28;2.80;;;19.40;1.00;;;;;;5034532;28;20618;-27
2022/09/06 00:31:21;;;;;;;4.35;2.72;;;19.40;1.00;;;;;;5034841;28;20091;-27
2022/09/06 00:33:48;;;;;;;6.07;2.90;;;19.40;1.00;;;;;;5035411;28;20107;-27
2022/09/06 00:36:13;;;;;;;12.15;3.72;;;19.40;1.00;;;;;;5016608;28;20049;-26
2022/09/06 00:38:39;;;;;;;4.47;2.90;;;19.30;5.00;;;;;;5034640;28;20054;-27
2022/09/06 00:41:07;;;;;;;7.00;3.60;;;19.20;11.20;;;;;;5034624;28;20068;-26
2022/09/06 00:43:33;;;;;;;7.72;3.30;;;19.10;41.10;;;;;;5034384;28;20048;-26
2022/09/06 00:46:00;;;;;;;4.45;3.15;;;19.00;96.00;;;;;;5034529;28;20045;-27
2022/09/06 00:48:26;;;;;;;7.38;3.28;;;18.90;99.90;;;;;;5035039;28;20060;-27
2022/09/06 00:51:00;;;;;;;8.88;3.50;;;18.90;99.90;;;;;;5034433;28;20049;-27
2022/09/06 00:53:26;;;;;;;6.50;3.40;;;18.80;99.90;;;;;;5034451;28;20047;-27
2022/09/06 00:55:53;;;;;;;7.35;3.75;;;18.70;99.90;;;;;;5033237;28;20388;-26
2022/09/06 00:58:19;;;;;;;6.88;4.00;;;18.70;99.90;;;;;;5034846;28;20060;-26
2022/09/06 01:00:45;;;;;;;6.47;3.33;;;18.60;99.90;;;;;;5035114;28;20103;-26
2022/09/06 01:03:11;;;;;;;9.52;4.25;;;18.60;99.90;;;;;;5034224;28;20049;-28
2022/09/06 01:06:03;;;;;;;10.60;3.90;;;18.50;99.90;;;;;;5034187;28;20483;-27
2022/09/06 01:08:58;;;;;;;9.68;3.45;;;18.50;99.90;;;;;;5033983;28;20387;-27
2022/09/06 01:11:32;;;;;;;7.88;3.90;;;18.50;99.90;;;;;;5024439;28;20056;-27
2022/09/06 01:14:25;;;;;;;11.18;3.60;;;18.40;99.90;;;;;;5033437;28;20115;-27
2022/09/06 01:17:16;;;;;;;7.32;3.80;;;18.30;99.90;;;;;;5034129;28;20045;-27
2022/09/06 01:20:40;;;;;;;6.97;4.28;;;18.30;99.90;;;;;;5034018;28;20056;-27
2022/09/06 01:23:27;;;;;;;8.75;3.70;;;18.30;99.90;;;;;;5022104;28;20057;-26
2022/09/06 01:26:23;;;;;;;5.07;3.63;;;18.30;99.90;;;;;;5034465;28;20049;-27
2022/09/06 01:28:51;;;;;;;7.20;3.97;;;18.30;99.90;;;;;;5034455;28;20056;-26
2022/09/06 01:31:42;;;;;;;5.90;4.00;;;18.20;99.90;;;;;;5033840;28;20053;-27
2022/09/06 01:34:13;;;;;;;8.95;3.92;;;18.20;99.90;;;;;;5033845;28;20100;-26
2022/09/06 01:36:49;;;;;;;5.82;4.00;;;18.20;99.90;;;;;;5035025;28;20412;-26
2022/09/06 01:39:28;;;;;;;9.48;3.55;;;18.20;99.90;;;;;;5033468;28;20049;-26
2022/09/06 01:41:56;;;;;;;7.15;3.80;;;18.30;99.90;;;;;;5033724;28;20417;-28
2022/09/06 01:44:27;;;;;;;5.55;3.80;;;18.20;99.90;;;;;;5033557;28;20081;-27
2022/09/06 01:47:24;;;;;;;6.93;4.15;;;18.20;99.90;;;;;;5033984;28;20095;-26
2022/09/06 01:50:19;;;;;;;11.60;3.22;;;18.20;99.90;;;;;;5033584;28;20160;-27
2022/09/06 01:53:02;;;;;;;7.22;3.63;;;18.20;99.90;;;;;;5014243;28;20054;-26
2022/09/06 01:56:08;;;;;;;7.57;3.55;;;18.20;99.90;;;;;;5034159;28;20041;-27
2022/09/06 01:59:08;;;;;;;6.95;3.60;;;18.20;99.90;;;;;;5002208;28;20065;-26
2022/09/06 02:01:54;;;;;;;4.78;3.40;;;18.20;99.90;;;;;;5033548;28;20136;-26
2022/09/06 02:04:34;;;;;;;5.72;3.92;;;18.20;99.90;;;;;;5034345;28;20053;-26
2022/09/06 02:07:09;;;;;;;10.82;4.05;;;18.30;99.90;;;;;;5034311;28;20128;-27
2022/09/06 02:09:42;;;;;;;5.95;3.45;;;18.30;99.90;;;;;;5038082;28;20037;-27
2022/09/06 02:12:11;;;;;;;;;;;18.30;99.90;;;;;;5020445;28;20555;-27
2022/09/06 02:14:49;;;;;;;5.03;3.38;;;18.30;99.90;;;;;;5037392;28;19964;-27
2022/09/06 02:17:23;;;;;;;9.93;3.63;;;18.30;99.90;;;;;;5037922;28;20052;-26
2022/09/06 02:19:55;;;;;;;7.30;3.53;;;18.30;99.90;;;;;;5037862;28;20092;-26
2022/09/06 02:22:27;;;;;;;5.45;3.90;;;18.30;99.90;;;;;;5037786;28;20080;-27
2022/09/06 02:24:55;;;;;;;6.93;3.50;;;18.30;99.90;;;;;;5037772;28;20049;-26
2022/09/06 02:27:21;;;;;;;6.60;3.70;;;18.30;99.90;;;;;;5037144;28;20048;-27
2022/09/06 02:29:47;;;;;;;5.57;3.53;;;18.20;99.90;;;;;;5037652;28;20125;-27
2022/09/06 02:32:25;;;;;;;9.75;3.60;;;18.20;99.90;;;;;;5035906;28;20088;-26
2022/09/06 02:34:53;;;;;;;6.90;3.67;;;18.20;99.90;;;;;;5037626;28;20438;-27
2022/09/06 02:37:19;;;;;;;4.63;4.00;;;18.10;99.90;;;;;;5036679;28;20377;-27
2022/09/06 02:39:45;;;;;;;7.95;3.92;;;18.10;99.90;;;;;;5036918;28;20077;-27
2022/09/06 02:42:13;;;;;;;7.03;4.13;;;18.10;99.90;;;;;;5035558;28;20495;-27
2022/09/06 02:44:39;;;;;;;9.88;3.67;;;18.10;99.90;;;;;;5036894;28;20056;-26
2022/09/06 02:47:05;;;;;;;5.97;4.03;;;18.00;99.90;;;;;;5036761;28;20049;-26
2022/09/06 02:49:32;;;;;;;6.68;3.58;;;18.10;99.90;;;;;;5036415;28;20507;-26
2022/09/06 02:51:57;;;;;;;7.13;4.20;;;18.10;99.90;;;;;;5036256;28;20045;-27
2022/09/06 02:54:23;;;;;;;7.13;3.72;;;18.10;99.90;;;;;;5036973;28;20045;-27
2022/09/06 02:56:49;;;;;;;7.15;3.85;;;18.10;99.90;;;;;;5036690;28;20407;-27
2022/09/06 02:59:15;;;;;;;10.63;3.78;;;18.10;99.90;;;;;;5037132;28;20041;-26
2022/09/06 03:01:41;;;;;;;7.03;3.95;;;18.10;99.90;;;;;;5036512;28;20080;-27
2022/09/06 03:04:07;;;;;;;8.30;3.92;;;18.20;99.90;;;;;;5036051;28;20045;-26
2022/09/06 03:06:33;;;;;;;9.60;3.70;;;18.10;99.90;;;;;;5036041;28;20053;-26
2022/09/06 03:08:59;;;;;;;6.50;3.83;;;18.20;99.90;;;;;;5035445;28;20392;-27
2022/09/06 03:11:25;;;;;;;7.00;4.45;;;18.20;99.90;;;;;;5036372;28;20053;-26
2022/09/06 03:13:51;;;;;;;5.13;3.60;;;18.20;99.90;;;;;;5035116;28;20033;-26
2022/09/06 03:16:18;;;;;;;9.40;4.68;;;18.20;99.90;;;;;;5036319;28;20164;-26
2022/09/06 03:18:44;;;;;;;7.35;3.97;;;18.20;99.90;;;;;;5035346;28;20046;-26
2022/09/06 03:21:10;;;;;;;6.40;3.65;;;18.20;99.90;;;;;;5036433;28;20123;-27
2022/09/06 03:23:38;;;;;;;6.07;4.43;;;18.20;99.90;;;;;;5036056;28;20128;-26
2022/09/06 03:26:05;;;;;;;6.90;4.13;;;18.20;99.90;;;;;;5036098;28;20053;-27
2022/09/06 03:28:31;;;;;;;8.27;4.18;;;18.20;99.90;;;;;;5036053;28;20132;-26
2022/09/06 03:30:57;;;;;;;6.72;4.32;;;18.20;99.90;;;;;;5036282;28;20133;-26
2022/09/06 03:33:22;;;;;;;5.43;4.30;;;18.20;99.90;;;;;;5036505;28;20041;-27
2022/09/06 03:35:51;;;;;;;7.55;4.43;;;18.20;99.90;;;;;;5034609;28;20515;-26
2022/09/06 03:38:17;;;;;;;8.88;4.03;;;18.20;99.90;;;;;;5035874;28;20049;-26
2022/09/06 03:40:49;;;;;;;7.75;4.50;;;18.20;99.90;;;;;;5035785;28;20045;-26
2022/09/06 03:43:17;;;;;;;6.07;4.10;;;18.20;99.90;;;;;;5035658;28;20049;-26
2022/09/06 03:45:47;;;;;;;6.63;4.18;;;18.20;99.90;;;;;;5034460;28;20049;-27
2022/09/06 03:48:14;;;;;;;6.50;4.05;;;18.20;99.90;;;;;;5036477;28;20129;-26
2022/09/06 03:50:48;;;;;;;6.72;4.25;;;18.20;99.90;;;;;;5035624;28;20060;-26
2022/09/06 03:53:15;;;;;;;6.38;4.20;;;18.20;99.90;;;;;;5035548;28;20084;-26
2022/09/06 03:55:47;;;;;;;7.65;4.53;;;18.20;99.90;;;;;;5034815;28;20061;-26
2022/09/06 03:58:14;;;;;;;6.82;4.47;;;18.20;99.90;;;;;;5035817;28;20110;-26
2022/09/06 04:00:40;;;;;;;6.65;4.05;;;18.20;99.90;;;;;;5034184;28;20057;-27
2022/09/06 04:03:06;;;;;;;6.40;4.78;;;18.20;99.90;;;;;;5036128;28;20041;-26
2022/09/06 04:05:32;;;;;;;7.00;4.70;;;18.20;99.90;;;;;;5033800;28;20492;-26
2022/09/06 04:07:57;;;;;;;7.60;4.50;;;18.10;99.90;;;;;;5035312;28;20053;-27
2022/09/06 04:10:23;;;;;;;5.32;4.47;;;18.10;99.90;;;;;;5034052;28;20045;-26
2022/09/06 04:12:49;;;;;;;5.78;4.15;;;18.10;99.90;;;;;;5035174;28;20042;-26
2022/09/06 04:15:14;;;;;;;5.28;4.22;;;18.10;99.90;;;;;;5035170;28;20076;-27
2022/09/06 04:17:44;;;;;;;11.60;4.80;;;18.10;99.90;;;;;;5034777;28;20404;-27
2022/09/06 04:20:11;;;;;;;7.38;4.68;;;18.00;99.90;;;;;;5035003;28;20053;-27
2022/09/06 04:22:37;;;;;;;7.35;4.55;;;18.10;99.90;;;;;;5034958;28;20045;-26
2022/09/06 04:25:04;;;;;;;4.93;4.40;;;18.10;99.90;;;;;;5034898;28;20053;-27
2022/09/06 04:27:29;;;;;;;7.72;4.25;;;18.10;99.90;;;;;;5034752;28;20361;-26
2022/09/06 04:29:55;;;;;;;7.80;4.57;;;18.10;99.90;;;;;;5033658;28;20051;-26
2022/09/06 04:32:21;;;;;;;8.30;4.32;;;18.10;99.90;;;;;;5034813;28;20488;-26
2022/09/06 04:34:47;;;;;;;8.43;5.07;;;18.10;99.90;;;;;;5034486;28;20045;-26
2022/09/06 04:37:16;;;;;;;13.82;5.57;;;18.10;99.90;;;;;;5035301;28;20053;-27
2022/09/06 04:39:43;;;;;;;6.93;4.60;;;18.10;99.90;;;;;;5033583;28;20045;-26
2022/09/06 04:42:09;;;;;;;7.70;4.97;;;18.10;99.90;;;;;;5034610;28;20045;-26
2022/09/06 04:44:34;;;;;;;6.97;5.25;;;18.10;99.90;;;;;;5034491;28;20399;-26
2022/09/06 04:47:17;;;;;;;8.98;5.38;;;18.10;99.90;;;;;;5033441;28;20045;-26
2022/09/06 04:49:43;;;;;;;9.40;5.77;;;18.00;99.90;;;;;;5034099;28;20092;-26
2022/09/06 04:52:10;;;;;;;8.82;6.30;;;18.00;1.00;;;;;;5033743;28;20041;-26
2022/09/06 04:54:35;;;;;;;7.88;5.93;;;17.90;1.00;;;;;;5033820;28;20085;-26
2022/09/06 04:57:01;;;;;;;10.73;6.20;;;17.90;1.00;;;;;;5035199;28;20082;-26
2022/09/06 04:59:27;;;;;;;7.57;6.22;;;17.80;1.00;;;;;;5034352;28;20399;-26
2022/09/06 05:01:53;;;;;;;10.55;7.55;;;17.80;1.00;;;;;;5034530;28;20067;-26
2022/09/06 05:04:19;;;;;;;12.18;6.53;;;17.70;46.60;;;;;;5034200;28;20049;-26
2022/09/06 05:06:45;;;;;;;13.40;7.25;;;17.60;99.90;;;;;;5034743;28;20050;-26
2022/09/06 05:09:10;;;;;;;9.38;7.78;;;17.60;99.90;;;;;;5034170;28;20064;-26
2022/09/06 05:11:36;;;;;;;10.98;7.72;;;17.50;99.90;;;;;;5034996;28;20136;-26
2022/09/06 05:14:02;;;;;;;12.20;8.02;;;17.40;99.90;;;;;;5034076;28;20038;-26
2022/09/06 05:16:28;;;;;;;14.30;7.78;;;17.40;99.90;;;;;;5032931;28;20045;-25
2022/09/06 05:18:53;;;;;;;14.65;9.18;;;17.40;99.90;;;;;;5034062;28;20403;-26
2022/09/06 05:21:19;;;;;;;10.88;8.82;;;17.30;1.00;;;;;;5034276;28;20080;-26
2022/09/06 05:23:45;;;;;;;10.50;8.15;;;17.30;1.00;;;;;;5033556;28;20080;-26
2022/09/06 05:26:10;;;;;;;10.90;8.10;;;17.20;1.00;;;;;;5033892;28;20052;-26
2022/09/06 05:28:36;;;;;;;13.85;8.90;;;17.10;1.00;;;;;;5033905;28;20048;-26
2022/09/06 05:31:10;;;;;;;10.70;8.38;;;17.10;1.00;;;;;;5033878;28;20053;-26
2022/09/06 05:33:36;;;;;;;9.15;8.23;;;17.10;1.00;;;;;;5034419;28;20049;-26
2022/09/06 05:36:04;;;;;;;10.80;8.15;;;17.10;1.00;;;;;;5033433;28;20065;-26
2022/09/06 05:38:30;;;;;;;10.40;8.13;;;17.10;1.00;;;;;;5033799;28;20049;-26
2022/09/06 05:40:56;;;;;;;9.68;8.70;;;17.10;1.00;;;;;;5033683;28;20124;-26
2022/09/06 05:43:21;;;;;;;10.27;8.05;;;17.20;1.00;;;;;;5033125;28;20042;-26
2022/09/06 05:45:47;;;;;;;12.85;8.70;;;17.20;1.00;;;;;;5033672;28;20046;-26
2022/09/06 05:48:13;;;;;;;10.77;8.27;;;17.20;1.00;;;;;;5034210;28;20042;-26
2022/09/06 05:50:39;;;;;;;10.50;9.25;;;17.20;1.00;;;;;;5034445;28;20111;-26
2022/09/06 05:53:04;;;;;;;8.98;8.07;;;17.30;1.00;;;;;;5033926;28;20046;-26
2022/09/06 05:55:30;;;;;;;19.13;9.43;;;17.30;1.00;;;;;;5034420;28;20046;-26
2022/09/06 05:57:56;;;;;;;11.10;8.55;;;17.20;1.00;;;;;;5033280;28;20465;-26
2022/09/06 06:00:21;;;;;;;14.07;9.50;;;17.30;1.00;;;;;;5033760;28;20094;-26
2022/09/06 06:02:48;;;;;;;14.02;9.02;;;17.30;1.00;;;;;;5033441;28;20052;-26
2022/09/06 06:05:14;;;;;;;14.70;9.85;;;17.30;1.00;;;;;;5033441;28;20049;-27
2022/09/06 06:07:40;;;;;;;12.05;9.10;;;17.30;1.00;;;;;;5033446;28;20056;-26
2022/09/06 06:10:06;;;;;;;12.45;10.00;;;17.30;1.00;;;;;;5032099;28;20053;-27
2022/09/06 06:12:32;;;;;;;12.60;8.85;;;17.30;1.00;;;;;;5033412;28;20050;-26
2022/09/06 06:14:57;;;;;;;12.90;9.02;;;17.40;1.00;;;;;;5033689;28;20081;-27
2022/09/06 06:17:23;;;;;;;13.80;9.15;;;17.40;9.60;;;;;;5033379;28;20037;-26
2022/09/06 06:19:49;;;;;;;11.30;8.52;;;17.50;5.10;;;;;;5034190;28;20046;-26
2022/09/06 06:22:14;;;;;;;12.50;8.50;;;17.50;1.00;;;;;;5015866;28;20476;-26
2022/09/06 06:24:40;;;;;;;11.50;8.85;;;17.50;1.00;;;;;;5033310;28;20049;-26
2022/09/06 06:27:06;;;;;;;11.27;8.82;;;17.60;1.00;;;;;;5033357;28;20081;-26
2022/09/06 06:29:32;;;;;;;11.13;8.95;;;17.60;1.00;;;;;;5032092;28;20053;-27
2022/09/06 06:31:57;;;;;;;9.98;8.48;;;17.70;1.00;;;;;;5033328;28;20115;-27
2022/09/06 06:34:23;;;;;;;13.35;8.75;;;17.70;1.00;;;;;;5033162;28;20045;-27
2022/09/06 06:36:49;;;;;;;11.13;10.02;;;17.70;1.00;;;;;;5031571;28;20057;-26
2022/09/06 06:39:14;;;;;;;10.23;9.13;;;17.80;1.00;;;;;;5032896;28;20061;-26
2022/09/06 06:41:40;;;;;;;14.18;8.27;;;17.90;1.00;;;;;;5034014;28;20098;-26
2022/09/06 06:44:06;;;;;;;11.68;8.93;;;18.00;1.00;;;;;;5033031;28;20045;-27
2022/09/06 06:46:35;;;;;;;9.80;8.80;;;18.00;1.00;;;;;;5033158;28;20506;-27
2022/09/06 06:49:01;;;;;;;10.35;8.70;;;18.10;1.00;;;;;;5033112;28;20053;-27
2022/09/06 06:51:30;;;;;;;12.32;8.52;;;18.20;1.00;;;;;;5033139;28;20045;-27
2022/09/06 06:53:56;;;;;;;12.30;8.80;;;18.30;1.00;;;;;;5033477;28;20088;-27
2022/09/06 06:56:34;;;;;;;14.00;8.95;;;18.50;1.00;;;;;;5036712;28;20493;-27
2022/09/06 06:59:02;;;;;;;9.75;8.73;;;18.60;99.90;;;;;;5037190;28;20049;-27
2022/09/06 07:01:30;;;;;;;18.35;10.07;;;18.70;99.90;;;;;;5035607;28;20049;-27
2022/09/06 07:03:57;;;;;;;10.27;8.60;;;18.80;99.90;;;;;;5035247;28;20037;-27
2022/09/06 07:06:23;;;;;;;13.07;8.25;;;18.90;99.90;;;;;;5037033;28;20432;-27
2022/09/06 07:08:49;;;;;;;11.23;9.48;;;19.00;99.90;;;;;;5035243;28;20056;-27
2022/09/06 07:11:17;;;;;;;12.65;9.40;;;19.10;99.90;;;;;;5036473;28;20052;-27
2022/09/06 07:13:43;;;;;;;13.10;8.95;;;19.20;99.90;;;;;;5036324;28;20438;-27
2022/09/06 07:16:12;;;;;;;17.20;10.13;;;19.30;99.90;;;;;;5037102;28;20072;-27
2022/09/06 07:18:41;;;;;;;10.20;8.48;;;19.40;99.90;;;;;;5036476;28;20545;-28
2022/09/06 07:21:14;;;;;;;10.45;9.43;;;19.50;99.90;;;;;;5036256;28;20053;-27
2022/09/06 07:23:40;;;;;;;9.93;8.93;;;19.50;99.90;;;;;;5035826;28;20519;-27
2022/09/06 07:26:07;;;;;;;10.65;8.52;;;19.50;99.90;;;;;;5036096;28;20052;-27
2022/09/06 07:28:33;;;;;;;13.38;11.02;;;19.50;96.10;;;;;;5035098;28;20054;-26
2022/09/06 07:30:59;;;;;;;12.20;9.27;;;19.40;35.70;;;;;;5034885;28;20045;-27
2022/09/06 07:33:26;;;;;;;13.88;8.88;;;19.30;16.10;;;;;;5036228;28;20126;-26
2022/09/06 07:36:00;;;;;;;10.00;8.88;;;19.30;19.30;;;;;;5035983;28;20140;-27
2022/09/06 07:38:28;;;;;;;10.05;9.05;;;19.40;14.80;;;;;;5036229;28;20050;-27
2022/09/06 07:40:56;;;;;;;11.55;9.18;;;19.40;1.00;;;;;;5035804;28;20048;-27
2022/09/06 07:43:22;;;;;;;14.27;8.38;;;19.50;5.20;;;;;;5035617;28;20042;-26
2022/09/06 07:45:48;;;;;;;12.45;8.73;;;19.60;7.00;;;;;;5036570;28;20056;-27
2022/09/06 07:48:14;;;;;;;16.83;9.13;;;19.70;1.00;;;;;;5034526;28;20076;-26
2022/09/06 07:50:39;;;;;;;12.77;8.93;;;19.80;1.00;;;;;;5035936;28;20472;-26
2022/09/06 07:53:09;;;;;;;9.88;8.68;;;19.90;1.00;;;;;;5035643;28;20455;-27
2022/09/06 07:55:34;;;;;;;13.60;8.38;;;20.00;1.00;;;;;;5035582;28;20076;-26
2022/09/06 07:58:00;;;;;;;12.65;8.63;;;20.20;1.00;;;;;;5035580;28;20519;-26
2022/09/06 08:00:26;;;;;;;10.50;8.70;;;20.30;1.00;;;;;;5035705;28;20132;-27
2022/09/06 08:02:52;;;;;;;13.40;9.50;;;20.40;1.00;;;;;;5035358;28;20042;-27
2022/09/06 08:05:17;;;;;;;10.57;9.43;;;20.50;1.00;;;;;;5017279;28;20140;-27
2022/09/06 08:07:43;;;;;;;11.80;10.13;;;20.70;99.90;;;;;;5035331;28;20056;-26
2022/09/06 08:10:09;;;;;;;15.35;9.27;;;20.70;99.90;;;;;;5035262;28;20387;-26
2022/09/06 08:12:34;;;;;;;9.77;8.82;;;20.80;99.90;;;;;;5017658;28;20094;-27
2022/09/06 08:15:00;;;;;;;11.45;9.52;;;20.80;99.90;;;;;;5035718;28;20049;-27
2022/09/06 08:17:26;;;;;;;10.57;9.00;;;20.80;99.90;;;;;;5035132;28;20513;-27
2022/09/06 08:19:52;;;;;;;15.32;10.00;;;20.90;99.90;;;;;;5035677;28;20050;-26
2022/09/06 08:22:17;;;;;;;13.25;9.30;;;20.90;99.90;;;;;;5035789;28;20088;-27
2022/09/06 08:24:43;;;;;;;10.82;9.55;;;21.00;99.90;;;;;;5035552;28;20391;-26
2022/09/06 08:27:10;;;;;;;12.15;9.27;;;21.00;99.90;;;;;;5035463;28;20460;-27
2022/09/06 08:29:35;;;;;;;11.25;9.50;;;21.10;99.90;;;;;;5034895;28;20075;-27
2022/09/06 08:32:01;;;;;;;11.05;9.50;;;21.20;99.90;;;;;;5035182;28;20132;-26
2022/09/06 08:34:27;;;;;;;10.45;9.00;;;21.30;99.90;;;;;;5050524;28;20056;-26
2022/09/06 08:36:53;;;;;;;11.35;9.35;;;21.50;99.90;;;;;;5033421;28;20060;-26
2022/09/06 08:39:18;;;;;;;17.80;9.50;;;21.60;99.90;;;;;;5033606;28;20041;-27
2022/09/06 08:42:04;;;;;;;14.95;9.73;;;21.60;99.90;;;;;;5034663;28;20045;-27
2022/09/06 08:44:38;;;;;;;13.80;9.57;;;21.70;99.90;;;;;;5017222;28;20045;-27
2022/09/06 08:47:12;;;;;;;13.63;9.82;;;21.80;93.60;;;;;;5035190;28;20479;-27
2022/09/06 08:49:46;;;;;;;12.30;10.10;;;21.90;99.90;;;;;;5034583;28;20041;-27
2022/09/06 08:52:21;;;;;;;16.20;9.02;;;21.90;97.30;;;;;;5033817;28;20068;-26
2022/09/06 08:55:09;;;;;;;10.55;8.77;;;22.10;90.70;;;;;;5034339;28;20053;-27
2022/09/06 08:58:22;;;;;;;11.10;8.80;;;22.20;1.00;;;;;;5033458;28;20085;-27
2022/09/06 09:01:00;;;;;;;12.05;8.50;;;22.40;1.00;;;;;;5012841;28;20141;-27
2022/09/06 09:03:36;;;;;;;13.00;8.90;;;22.60;1.00;;;;;;5012745;28;20045;-27
2022/09/06 09:06:05;;;;;;;15.20;8.77;;;22.90;1.00;;;;;;5025740;28;20057;-27
2022/09/06 09:08:58;;;;;;;16.20;8.52;;;23.20;1.00;;;;;;5034403;28;20484;-27
2022/09/06 09:11:27;;;;;;;;;;;24.20;99.90;;;;;;5034286;28;20530;-27
2022/09/06 09:13:59;;;;;;;9.02;7.00;;;25.20;99.90;;;;;;5034089;28;20012;-28
2022/09/06 09:16:25;;;;;;;10.00;7.72;;;26.20;99.90;;;;;;5033706;28;20180;-27
2022/09/06 09:19:03;;;;;;;9.10;7.95;;;26.80;1.00;;;;;;5033799;28;20137;-27
2022/09/06 09:21:38;;;;;;;12.00;7.82;;;27.00;99.90;;;;;;5033990;28;20051;-27
2022/09/06 09:24:07;;;;;;;21.38;7.97;;;27.20;99.90;;;;;;5033934;28;20534;-27
2022/09/06 09:26:51;;;;;;;8.85;8.05;;;27.30;18.90;;;;;;5034464;28;20049;-27
2022/09/06 09:29:17;;;;;;;8.57;7.45;;;27.60;1.00;;;;;;5034550;28;20136;-27
2022/09/06 09:31:53;;;;;;;11.13;6.88;;;28.10;1.00;;;;;;5033871;28;20531;-27
2022/09/06 09:34:39;;;;;;;16.73;7.53;;;28.00;99.90;;;;;;5033813;28;20081;-27
2022/09/06 09:37:23;;;;;;;7.75;6.30;;;27.90;99.90;;;;;;5032820;28;20045;-27
2022/09/06 09:39:53;;;;;;;9.82;6.88;;;28.00;99.90;;;;;;5033519;28;20404;-27
2022/09/06 09:42:45;;;;;;;7.00;6.30;;;28.30;99.90;;;;;;5032567;28;20507;-27
2022/09/06 09:45:25;;;;;;;10.02;6.68;;;27.90;99.90;;;;;;5032853;28;20455;-27
2022/09/06 09:47:50;;;;;;;9.52;6.70;;;27.50;99.90;;;;;;5033787;28;20084;-27
2022/09/06 09:50:34;;;;;;;10.02;6.60;;;27.50;1.00;;;;;;5033611;28;20049;-27
2022/09/06 09:53:11;;;;;;;9.38;6.70;;;27.80;99.90;;;;;;5033608;28;20037;-27
2022/09/06 09:55:37;;;;;;;9.65;6.28;;;28.20;99.90;;;;;;5033495;28;20076;-27
2022/09/06 09:58:05;;;;;;;9.30;6.38;;;28.70;99.90;;;;;;5033563;28;20136;-27
2022/09/06 10:00:38;;;;;;;8.30;6.22;;;29.10;99.90;;;;;;5033543;28;20060;-27
2022/09/06 10:03:30;;;;;;;7.93;6.35;;;29.60;99.90;;;;;;5033501;28;20049;-27
2022/09/06 10:05:59;;;;;;;12.45;5.20;;;30.20;99.90;;;;;;5032162;28;20061;-27
2022/09/06 10:08:26;;;;;;;6.20;5.30;;;30.20;99.90;;;;;;5032513;28;20399;-27
2022/09/06 10:10:52;;;;;;;8.20;5.28;;;30.10;1.00;;;;;;5032474;28;20484;-27
2022/09/06 10:13:23;;;;;;;7.72;4.55;;;30.20;1.00;;;;;;5033447;28;20124;-27
2022/09/06 10:15:51;;;;;;;10.13;4.95;;;30.30;1.00;;;;;;5033490;28;20049;-27
2022/09/06 10:18:41;;;;;;;6.88;4.75;;;30.30;1.00;;;;;;5032230;28;20076;-27
2022/09/06 10:21:13;;;;;;;6.13;4.40;;;30.30;1.00;;;;;;5033414;28;20045;-28
2022/09/06 10:24:00;;;;;;;6.03;5.30;;;30.30;1.00;;;;;;5033323;28;20037;-27
2022/09/06 10:26:37;;;;;;;8.93;4.85;;;30.50;1.00;;;;;;5033628;28;20467;-27
2022/09/06 10:29:10;;;;;;;11.57;5.40;;;30.70;1.00;;;;;;5034365;28;20052;-27
2022/09/06 10:31:54;;;;;;;10.40;7.00;;;31.10;1.00;;;;;;5037982;28;20142;-27
2022/09/06 10:34:40;;;;;;;9.73;6.03;;;31.00;1.00;;;;;;5037953;28;20047;-27
2022/09/06 10:37:35;;;;;;;11.63;5.35;;;31.20;1.00;;;;;;5035611;28;20474;-28
2022/09/06 10:40:08;;;;;;;11.65;6.93;;;31.60;1.00;;;;;;5036865;28;20441;-28
2022/09/06 10:42:42;;;;;;;7.82;6.72;;;31.50;1.00;;;;;;5037075;28;20041;-28
2022/09/06 10:45:26;;;;;;;8.60;6.07;;;31.60;1.00;;;;;;5037499;28;20112;-28
2022/09/06 10:47:55;;;;;;;10.38;7.13;;;31.60;1.00;;;;;;5036833;28;20053;-28
2022/09/06 10:50:36;;;;;;;8.38;6.70;;;31.40;1.00;;;;;;5036788;28;20053;-27
2022/09/06 10:53:09;;;;;;;8.45;5.53;;;31.50;6.30;;;;;;5037362;28;20077;-28
2022/09/06 10:55:38;;;;;;;7.35;5.75;;;31.70;1.00;;;;;;5037570;28;20049;-28
2022/09/06 10:58:05;;;;;;;7.20;5.50;;;31.70;1.00;;;;;;5036664;28;20368;-28
2022/09/06 11:00:40;;;;;;;9.75;5.68;;;31.60;1.00;;;;;;5037697;28;20056;-28
2022/09/06 11:03:31;;;;;;;6.03;5.00;;;31.60;1.00;;;;;;5036560;28;20049;-28
2022/09/06 11:06:05;;;;;;;7.90;5.80;;;31.80;1.00;;;;;;5036557;28;20049;-28
2022/09/06 11:08:44;;;;;;;8.25;5.47;;;32.00;9.00;;;;;;5036804;28;20049;-27
2022/09/06 11:11:25;;;;;;;8.27;6.10;;;32.10;6.60;;;;;;5036998;28;20053;-28
2022/09/06 11:13:51;;;;;;;9.07;6.22;;;32.10;2.70;;;;;;5019862;28;20057;-27
2022/09/06 11:16:23;;;;;;;6.25;5.68;;;31.90;1.00;;;;;;5035366;28;20045;-28
2022/09/06 11:19:03;;;;;;;8.88;6.70;;;32.20;25.80;;;;;;5036346;28;20098;-28
2022/09/06 11:21:58;;;;;;;9.48;5.80;;;32.30;13.00;;;;;;5036809;28;20056;-27
2022/09/06 11:25:03;;;;;;;10.05;6.72;;;32.40;23.30;;;;;;5036393;28;20391;-29
2022/09/06 11:27:29;;;;;;;10.57;6.03;;;32.40;72.20;;;;;;5036152;28;20045;-27
2022/09/06 11:29:56;;;;;;;9.35;6.28;;;32.50;76.80;;;;;;5035760;28;20052;-28
2022/09/06 11:32:39;;;;;;;9.40;6.07;;;32.50;81.80;;;;;;5036061;28;20053;-28
2022/09/06 11:35:27;;;;;;;8.68;6.63;;;32.60;89.80;;;;;;5036827;28;20045;-28
2022/09/06 11:38:14;;;;;;;11.77;6.07;;;31.90;63.20;;;;;;5035957;28;20049;-27
2022/09/06 11:40:45;;;;;;;9.20;6.70;;;31.00;24.50;;;;;;5033989;28;20595;-27
2022/09/06 11:43:31;;;;;;;14.43;6.60;;;30.20;8.10;;;;;;5036536;28;20041;-29
2022/09/06 11:45:57;;;;;;;11.95;6.30;;;29.50;1.00;;;;;;5035841;28;20045;-27
2022/09/06 11:48:22;;;;;;;9.25;6.93;;;29.10;1.00;;;;;;5035710;28;20049;-28
2022/09/06 11:50:57;;;;;;;7.53;6.18;;;29.10;1.00;;;;;;5035683;28;20091;-28
2022/09/06 11:53:25;;;;;;;8.25;5.50;;;29.70;14.30;;;;;;5035648;28;20056;-27
2022/09/06 11:56:00;;;;;;;12.65;6.50;;;30.50;1.00;;;;;;5034882;28;20055;-28
2022/09/06 11:58:49;;;;;;;13.82;5.90;;;31.20;39.70;;;;;;5035849;28;20446;-27
2022/09/06 12:01:15;;;;;;;8.88;5.70;;;31.80;7.40;;;;;;5036074;28;20045;-29
2022/09/06 12:03:47;;;;;;;10.25;5.38;;;32.10;30.10;;;;;;5035646;28;20111;-27
2022/09/06 12:06:23;;;;;;;6.18;4.68;;;32.10;60.90;;;;;;5034769;28;20056;-28
2022/09/06 12:08:53;;;;;;;6.10;5.10;;;32.10;60.90;;;;;;5035947;28;20084;-28
2022/09/06 12:11:19;;;;;;;9.90;4.35;;;32.20;66.00;;;;;;5035329;28;20128;-27
2022/09/06 12:13:44;;;;;;;6.85;5.07;;;32.50;90.80;;;;;;5017525;28;20124;-28
2022/09/06 12:16:11;;;;;;;7.07;4.82;;;32.60;85.60;;;;;;5035237;28;20495;-28
2022/09/06 12:18:46;;;;;;;9.93;4.55;;;32.80;99.40;;;;;;5035172;28;20050;-28
2022/09/06 12:21:41;;;;;;;8.15;4.93;;;32.70;99.90;;;;;;5035385;28;20053;-29
2022/09/06 12:24:33;;;;;;;6.65;4.18;;;32.70;99.90;;;;;;5033861;28;20080;-28
2022/09/06 12:27:19;;;;;;;11.18;4.38;;;32.90;99.90;;;;;;5031798;28;20061;-29
2022/09/06 12:30:07;;;;;;;8.65;4.22;;;32.90;99.90;;;;;;5034941;28;20054;-28
2022/09/06 12:32:42;;;;;;;7.53;3.75;;;32.90;99.90;;;;;;5035440;28;20377;-29
2022/09/06 12:35:25;;;;;;;5.75;4.15;;;32.90;99.90;;;;;;5034853;28;20050;-29
2022/09/06 12:37:56;;;;;;;8.50;4.10;;;33.10;99.90;;;;;;5034470;28;20587;-28
2022/09/06 12:40:24;;;;;;;5.20;3.70;;;32.90;99.90;;;;;;5035057;28;20045;-28
2022/09/06 12:42:51;;;;;;;8.68;3.33;;;32.90;99.90;;;;;;5035345;28;20068;-28
2022/09/06 12:45:20;;;;;;;6.43;3.75;;;32.90;99.90;;;;;;5035213;28;20045;-28
2022/09/06 12:47:46;;;;;;;6.18;3.38;;;33.00;99.90;;;;;;5033709;28;20045;-28
2022/09/06 12:50:14;;;;;;;8.55;3.15;;;32.90;99.90;;;;;;5034566;28;20041;-28
2022/09/06 12:52:50;;;;;;;5.50;3.63;;;32.70;99.90;;;;;;5033199;28;20408;-29
2022/09/06 12:55:24;;;;;;;4.75;3.50;;;32.70;99.90;;;;;;5034507;28;20484;-29
2022/09/06 12:57:58;;;;;;;5.53;3.15;;;32.80;99.90;;;;;;5035044;28;20131;-28
2022/09/06 13:00:30;;;;;;;4.47;3.33;;;32.90;99.90;;;;;;5034978;28;20387;-29
2022/09/06 13:03:10;;;;;;;;;;;32.90;99.90;;;;;;5035292;28;20041;-28
2022/09/06 13:05:41;;;;;;;5.88;2.97;;;32.90;99.90;;;;;;5034295;28;19975;-27
2022/09/06 13:08:13;;;;;;;4.18;3.08;;;32.90;99.90;;;;;;5034221;28;20050;-28
2022/09/06 13:10:42;;;;;;;4.05;2.90;;;33.00;99.90;;;;;;5034259;28;20491;-29